Time;durP1;ratioP1;P1;durP2;ratioP2;P2;SDS_P1;SDS_P2;PMS_P1;PMS_P2;Temp;Humidity;BMP_temperature;BMP_pressure;BME280_temperature;BME280_humidity;BME280_pressure;Samples;Min_cycle;Max_cycle;Signal;HPM_P1;HPM_P2
2022/03/04 00:01:43;;;;;;;;;;;1.40;99.90;;;;;;5077702;28;19927;-84
2022/03/04 00:04:09;;;;;;;;;;;1.50;99.90;;;;;;5097051;28;19924;-83
2022/03/04 00:06:35;;;;;;;;;;;1.40;99.90;;;;;;5075059;28;19927;-84
2022/03/04 00:09:01;;;;;;;;;;;1.30;99.90;;;;;;5079203;28;19924;-83
2022/03/04 00:11:27;;;;;;;;;;;1.30;99.90;;;;;;5075186;28;19968;-84
2022/03/04 00:13:54;;;;;;;;;;;1.40;99.90;;;;;;5098785;28;20277;-84
2022/03/04 00:16:19;;;;;;;;;;;1.20;99.90;;;;;;5081480;28;19924;-84
2022/03/04 00:18:45;;;;;;;;;;;1.10;99.90;;;;;;5081534;28;19964;-83
2022/03/04 00:21:10;;;;;;;;;;;1.10;99.90;;;;;;5098638;28;20016;-84
2022/03/04 00:23:36;;;;;;;;;;;1.00;99.90;;;;;;5081583;28;20020;-83
2022/03/04 00:26:02;;;;;;;;;;;1.00;99.90;;;;;;5098337;28;20015;-84
2022/03/04 00:28:27;;;;;;;;;;;1.00;99.90;;;;;;5098030;28;20388;-83
2022/03/04 00:34:00;;;;;;;;;;;0.90;99.90;;;;;;5098531;28;20297;-84
2022/03/04 00:36:26;;;;;;;;;;;0.90;99.90;;;;;;5081101;28;19920;-84
2022/03/04 00:38:53;;;;;;;;;;;0.90;99.90;;;;;;5081608;28;20296;-84
2022/03/04 00:41:19;;;;;;;;;;;0.90;99.90;;;;;;5081534;28;19930;-83
2022/03/04 00:43:45;;;;;;;;;;;0.90;99.90;;;;;;5081717;28;19919;-84
2022/03/04 00:46:11;;;;;;;;;;;0.90;99.90;;;;;;5097826;28;19927;-84
2022/03/04 00:48:37;;;;;;;;;;;0.80;99.90;;;;;;5081286;28;19930;-83
2022/03/04 00:51:03;;;;;;;;;;;0.80;99.90;;;;;;5081521;28;20010;-84
2022/03/04 00:53:28;;;;;;;;;;;0.70;99.90;;;;;;5081214;28;19924;-84
2022/03/04 00:55:54;;;;;;;;;;;0.70;99.90;;;;;;5081107;28;20291;-84
2022/03/04 00:58:19;;;;;;;;;;;0.70;99.90;;;;;;5081003;28;19920;-83
2022/03/04 01:00:44;;;;;;;;;;;0.60;99.90;;;;;;5081320;28;19992;-83
2022/03/04 01:03:10;;;;;;;;;;;0.60;99.90;;;;;;5080955;28;19984;-83
2022/03/04 01:05:36;;;;;;;;;;;0.60;99.90;;;;;;5081101;28;19919;-83
2022/03/04 01:08:02;;;;;;;;;;;0.50;99.90;;;;;;5080537;28;20407;-83
2022/03/04 01:10:27;;;;;;;;;;;0.50;99.90;;;;;;5080877;28;20021;-83
2022/03/04 01:12:53;;;;;;;;;;;0.50;99.90;;;;;;5081004;28;20357;-83
2022/03/04 01:15:18;;;;;;;;;;;0.50;99.90;;;;;;5080834;28;19926;-84
2022/03/04 01:17:44;;;;;;;;;;;0.50;99.90;;;;;;5080200;28;19920;-84
2022/03/04 01:20:09;;;;;;;;;;;0.40;99.90;;;;;;5080476;28;19919;-84
2022/03/04 01:22:35;;;;;;;;;;;0.40;99.90;;;;;;5080638;28;19923;-84
2022/03/04 01:25:00;;;;;;;;;;;0.40;99.90;;;;;;5080907;28;20450;-84
2022/03/04 01:27:27;;;;;;;;;;;0.30;99.90;;;;;;5080381;28;19931;-84
2022/03/04 01:29:53;;;;;;;;;;;0.30;99.90;;;;;;5101033;28;20270;-84
2022/03/04 01:32:18;;;;;;;;;;;0.30;99.90;;;;;;5080118;28;19930;-84
2022/03/04 01:34:44;;;;;;;;;;;0.30;99.90;;;;;;5080316;28;20015;-84
2022/03/04 01:37:09;;;;;;;;;;;0.40;99.90;;;;;;5097179;28;19966;-83
2022/03/04 01:39:35;;;;;;;;;;;0.30;99.90;;;;;;5080579;28;19920;-84
2022/03/04 01:42:01;;;;;;;;;;;0.20;99.90;;;;;;5080204;28;19926;-83
2022/03/04 01:44:27;;;;;;;;;;;0.20;99.90;;;;;;5080585;28;19927;-83
2022/03/04 01:46:52;;;;;;;;;;;0.20;99.90;;;;;;5079962;28;21628;-83
2022/03/04 01:49:18;;;;;;;;;;;0.10;99.90;;;;;;5073514;28;19930;-83
2022/03/04 01:51:43;;;;;;;;;;;0.20;99.90;;;;;;5080139;28;19919;-84
2022/03/04 01:54:09;;;;;;;;;;;0.10;99.90;;;;;;5079961;28;20426;-84
2022/03/04 01:56:34;;;;;;;;;;;0.20;99.90;;;;;;5123497;27;19920;-83
2022/03/04 01:59:00;;;;;;;;;;;0.10;99.90;;;;;;5079931;28;20571;-83
2022/03/04 02:01:26;;;;;;;;;;;0.10;99.90;;;;;;5080265;28;20326;-83
2022/03/04 02:03:51;;;;;;;;;;;0.10;99.90;;;;;;5063404;28;19920;-83
2022/03/04 02:06:17;;;;;;;;;;;0.00;99.90;;;;;;5061275;28;19967;-83
2022/03/04 02:08:42;;;;;;;;;;;0.00;99.90;;;;;;5079610;28;19980;-83
2022/03/04 02:11:08;;;;;;;;;;;0.00;99.90;;;;;;5079659;28;19923;-83
2022/03/04 02:13:34;;;;;;;;;;;-0.10;99.90;;;;;;5096553;28;19926;-84
2022/03/04 02:16:00;;;;;;;;;;;-0.10;99.90;;;;;;5079630;28;19927;-83
2022/03/04 02:18:25;;;;;;;;;;;-0.10;99.90;;;;;;5079482;28;19920;-84
2022/03/04 02:20:52;;;;;;;;;;;-0.10;99.90;;;;;;5079680;28;19919;-84
2022/03/04 02:23:18;;;;;;;;;;;-0.10;99.90;;;;;;5073034;28;20387;-84
2022/03/04 02:25:46;;;;;;;;;;;-0.10;99.90;;;;;;5072873;28;19993;-83
2022/03/04 02:28:11;;;;;;;;;;;-0.10;99.90;;;;;;5095919;28;19967;-83
2022/03/04 02:30:37;;;;;;;;;;;-0.20;99.90;;;;;;5096148;28;19920;-83
2022/03/04 02:33:03;;;;;;;;;;;-0.20;99.90;;;;;;5078758;28;20288;-83
2022/03/04 02:35:30;;;;;;;;;;;-0.20;99.90;;;;;;5096091;28;20274;-83
2022/03/04 02:37:56;;;;;;;;;;;-0.30;99.90;;;;;;5078781;28;20269;-83
2022/03/04 02:40:22;;;;;;;;;;;-0.20;99.90;;;;;;5096376;28;19942;-83
2022/03/04 02:42:47;;;;;;;;;;;-0.20;99.90;;;;;;5079475;28;19920;-83
2022/03/04 02:45:13;;;;;;;;;;;-0.30;99.90;;;;;;5079218;28;19963;-83
2022/03/04 02:47:39;;;;;;;;;;;-0.30;99.90;;;;;;5095285;28;19928;-84
2022/03/04 02:50:05;;;;;;;;;;;-0.30;99.90;;;;;;5079226;28;19919;-83
2022/03/04 02:52:30;;;;;;;;;;;-0.30;99.90;;;;;;5079319;28;19924;-83
2022/03/04 02:54:56;;;;;;;;;;;-0.30;99.90;;;;;;5079229;28;20010;-83
2022/03/04 02:57:21;;;;;;;;;;;-0.30;99.90;;;;;;5078529;28;20020;-84
2022/03/04 02:59:47;;;;;;;;;;;-0.30;99.90;;;;;;5078933;28;19919;-83
2022/03/04 03:02:12;;;;;;;;;;;-0.30;99.90;;;;;;5079269;28;19942;-83
2022/03/04 03:04:38;;;;;;;;;;;-0.40;99.90;;;;;;5078824;28;19924;-83
2022/03/04 03:07:03;;;;;;;;;;;-0.40;99.90;;;;;;5078701;28;20458;-83
2022/03/04 03:09:29;;;;;;;;;;;-0.30;99.90;;;;;;5078628;28;19919;-83
2022/03/04 03:11:54;;;;;;;;;;;-0.40;99.90;;;;;;5079095;28;20360;-83
2022/03/04 03:14:20;;;;;;;;;;;-0.50;99.90;;;;;;5078698;28;19959;-83
2022/03/04 03:16:46;;;;;;;;;;;-0.40;99.90;;;;;;5078502;28;19969;-83
2022/03/04 03:19:11;;;;;;;;;;;-0.40;99.90;;;;;;5078920;28;19931;-83
2022/03/04 03:21:37;;;;;;;;;;;-0.50;99.90;;;;;;5095515;28;19920;-83
2022/03/04 03:24:03;;;;;;;;;;;-0.50;99.90;;;;;;5088818;28;20015;-83
2022/03/04 03:26:28;;;;;;;;;;;-0.40;99.90;;;;;;5078141;28;19924;-83
2022/03/04 03:28:54;;;;;;;;;;;-0.40;99.90;;;;;;5072480;28;19924;-83
2022/03/04 03:31:19;;;;;;;;;;;-0.40;99.90;;;;;;5077770;28;19927;-83
2022/03/04 03:33:45;;;;;;;;;;;-0.50;99.90;;;;;;5078368;28;19920;-83
2022/03/04 03:36:11;;;;;;;;;;;-0.50;99.90;;;;;;5078117;28;19927;-83
2022/03/04 03:38:36;;;;;;;;;;;-0.60;99.90;;;;;;5078774;28;19926;-83
2022/03/04 03:41:02;;;;;;;;;;;-0.60;99.90;;;;;;5071929;28;19919;-84
2022/03/04 03:43:28;;;;;;;;;;;-0.50;99.90;;;;;;5081014;28;19919;-83
2022/03/04 03:45:53;;;;;;;;;;;-0.50;99.90;;;;;;5082588;28;19973;-83
2022/03/04 03:48:19;;;;;;;;;;;-0.50;99.90;;;;;;5098729;28;19982;-83
2022/03/04 03:50:44;;;;;;;;;;;-0.40;99.90;;;;;;5082150;28;19926;-83
2022/03/04 03:53:10;;;;;;;;;;;-0.60;99.90;;;;;;5075562;28;19927;-83
2022/03/04 03:55:35;;;;;;;;;;;-0.60;99.90;;;;;;5082363;28;21007;-83
2022/03/04 03:58:01;;;;;;;;;;;-0.60;99.90;;;;;;5082058;28;19919;-83
2022/03/04 04:00:26;;;;;;;;;;;-0.60;99.90;;;;;;5082459;28;19924;-83
2022/03/04 04:02:52;;;;;;;;;;;-0.50;99.90;;;;;;5082207;28;19920;-83
2022/03/04 04:05:18;;;;;;;;;;;-0.60;99.90;;;;;;5082499;28;19941;-83
2022/03/04 04:07:43;;;;;;;;;;;-0.60;99.90;;;;;;5081662;28;19923;-83
2022/03/04 04:10:10;;;;;;;;;;;-0.50;99.90;;;;;;5081990;28;20407;-83
2022/03/04 04:12:35;;;;;;;;;;;-0.50;99.90;;;;;;5099443;28;19923;-83
2022/03/04 04:15:03;;;;;;;;;;;-0.60;99.90;;;;;;5081957;28;19920;-83
2022/03/04 04:17:28;;;;;;;;;;;-0.60;99.90;;;;;;5098997;28;19931;-84
2022/03/04 04:19:54;;;;;;;;;;;-0.50;99.90;;;;;;5081845;28;19919;-83
2022/03/04 04:22:20;;;;;;;;;;;-0.60;99.90;;;;;;5081872;28;19920;-83
2022/03/04 04:24:45;;;;;;;;;;;-0.60;99.90;;;;;;5081614;28;19994;-83
2022/03/04 04:27:11;;;;;;;;;;;-0.70;99.90;;;;;;5081195;28;20340;-84
2022/03/04 04:29:36;;;;;;;;;;;-0.70;99.90;;;;;;5074931;28;19934;-83
2022/03/04 04:32:02;;;;;;;;;;;-0.70;99.90;;;;;;5098643;28;20611;-83
2022/03/04 04:34:27;;;;;;;;;;;-0.70;99.90;;;;;;5081580;28;19959;-83
2022/03/04 04:36:53;;;;;;;;;;;-0.80;99.90;;;;;;5081085;28;20350;-83
2022/03/04 04:39:20;;;;;;;;;;;-0.80;99.90;;;;;;5081188;28;21294;-83
2022/03/04 04:41:45;;;;;;;;;;;-0.90;99.90;;;;;;5081446;28;19920;-83
2022/03/04 04:44:11;;;;;;;;;;;-0.90;99.90;;;;;;5098689;28;19920;-83
2022/03/04 04:46:36;;;;;;;;;;;-0.90;99.90;;;;;;5098109;28;19926;-83
2022/03/04 04:49:02;;;;;;;;;;;-0.90;99.90;;;;;;5081312;28;19924;-83
2022/03/04 04:51:28;;;;;;;;;;;-0.90;99.90;;;;;;5081324;28;20403;-83
2022/03/04 04:53:53;;;;;;;;;;;-0.90;99.90;;;;;;5081178;28;19919;-82
2022/03/04 04:56:20;;;;;;;;;;;-0.90;99.90;;;;;;5095429;28;19924;-83
2022/03/04 04:58:45;;;;;;;;;;;-1.00;99.90;;;;;;5076712;28;19920;-83
2022/03/04 05:01:11;;;;;;;;;;;-0.90;99.90;;;;;;5081202;28;19926;-83
2022/03/04 05:03:36;;;;;;;;;;;-0.90;99.90;;;;;;5078118;28;19924;-83
2022/03/04 05:06:02;;;;;;;;;;;-1.00;99.90;;;;;;5097026;28;20299;-85
2022/03/04 05:08:29;;;;;;;;;;;-0.90;99.90;;;;;;5079881;28;20042;-83
2022/03/04 05:10:58;;;;;;;;;;;-1.00;99.90;;;;;;5080108;28;20016;-83
2022/03/04 05:13:24;;;;;;;;;;;-1.10;99.90;;;;;;5080726;28;20007;-83
2022/03/04 05:15:50;;;;;;;;;;;-0.90;99.90;;;;;;5080219;28;20019;-83
2022/03/04 05:18:15;;;;;;;;;;;-1.10;99.90;;;;;;5090852;28;20360;-82
2022/03/04 05:20:41;;;;;;;;;;;-1.10;99.90;;;;;;5080239;28;19920;-83
2022/03/04 05:23:06;;;;;;;;;;;-1.10;99.90;;;;;;5077146;28;19919;-83
2022/03/04 05:25:32;;;;;;;;;;;-1.20;99.90;;;;;;5080087;28;20410;-83
2022/03/04 05:27:57;;;;;;;;;;;-1.20;99.90;;;;;;5079718;28;19949;-83
2022/03/04 05:30:23;;;;;;;;;;;-1.00;99.90;;;;;;5092827;28;20272;-83
2022/03/04 05:32:49;;;;;;;;;;;-1.20;99.90;;;;;;5096708;28;20050;-83
2022/03/04 05:35:15;;;;;;;;;;;-1.30;99.90;;;;;;5060070;28;20325;-83
2022/03/04 05:37:41;;;;;;;;;;;-1.40;99.90;;;;;;5094888;28;19924;-83
2022/03/04 05:40:07;;;;;;;;;;;-1.40;99.90;;;;;;5091870;28;19927;-83
2022/03/04 05:42:33;;;;;;;;;;;-1.30;99.90;;;;;;5077649;28;19923;-83
2022/03/04 05:44:58;;;;;;;;;;;-1.30;99.90;;;;;;5079789;28;19930;-83
2022/03/04 05:47:24;;;;;;;;;;;-1.30;99.90;;;;;;5078860;28;19928;-84
2022/03/04 05:49:50;;;;;;;;;;;-1.20;99.90;;;;;;5096667;28;20016;-83
2022/03/04 05:52:15;;;;;;;;;;;-1.20;99.90;;;;;;5079219;28;19920;-83
2022/03/04 05:54:41;;;;;;;;;;;-1.20;99.90;;;;;;5079586;28;19973;-83
2022/03/04 05:57:06;;;;;;;;;;;-1.20;99.90;;;;;;5072223;28;19976;-83
2022/03/04 05:59:32;;;;;;;;;;;-1.20;99.90;;;;;;5094046;28;19923;-83
2022/03/04 06:01:57;;;;;;;;;;;-1.10;99.90;;;;;;5078472;28;20389;-82
2022/03/04 06:04:23;;;;;;;;;;;-1.10;99.90;;;;;;5079292;28;19923;-84
2022/03/04 06:06:48;;;;;;;;;;;-1.10;99.90;;;;;;5078017;28;19924;-83
2022/03/04 06:09:14;;;;;;;;;;;-1.10;99.90;;;;;;5078930;28;19930;-83
2022/03/04 06:11:39;;;;;;;;;;;-1.00;99.90;;;;;;5095856;28;19943;-83
2022/03/04 06:14:06;;;;;;;;;;;0.00;99.90;;;;;;5079008;28;20372;-83
2022/03/04 06:16:31;;;;;;;;;;;-0.90;99.90;;;;;;5078711;28;20018;-82
2022/03/04 06:18:58;;;;;;;;;;;-1.00;99.90;;;;;;5096234;28;20408;-82
2022/03/04 06:21:23;;;;;;;;;;;-0.90;99.90;;;;;;5079024;28;19920;-83
2022/03/04 06:23:49;;;;;;;;;;;-0.90;99.90;;;;;;5078738;28;20303;-83
2022/03/04 06:26:14;;;;;;;;;;;-0.80;99.90;;;;;;5078361;28;19969;-83
2022/03/04 06:28:40;;;;;;;;;;;-0.90;99.90;;;;;;5078523;28;19930;-83
2022/03/04 06:31:05;;;;;;;;;;;-0.90;99.90;;;;;;5079050;28;19920;-83
2022/03/04 06:33:32;;;;;;;;;;;-0.90;99.90;;;;;;5067933;28;19919;-83
2022/03/04 06:36:09;;;;;;;;;;;-0.80;99.90;;;;;;5095610;28;20348;-83
2022/03/04 06:38:36;;;;;;;;;;;-0.80;99.90;;;;;;5078542;28;19963;-83
2022/03/04 06:41:02;;;;;;;;;;;-0.90;99.90;;;;;;5078834;28;19928;-83
2022/03/04 06:43:27;;;;;;;;;;;-0.80;99.90;;;;;;5095280;28;20356;-83
2022/03/04 06:45:53;;;;;;;;;;;-0.80;99.90;;;;;;5095437;28;19919;-83
2022/03/04 06:48:19;;;;;;;;;;;-0.80;99.90;;;;;;5073273;28;20023;-83
2022/03/04 06:51:10;;;;;;;;;;;-0.80;99.90;;;;;;5076526;28;20364;-83
2022/03/04 06:53:36;;;;;;;;;;;-0.80;99.90;;;;;;5111903;28;19926;-83
2022/03/04 06:56:01;;;;;;;;;;;-0.80;99.90;;;;;;5071290;28;20010;-83
2022/03/04 06:58:27;;;;;;;;;;;-0.70;99.90;;;;;;5078199;28;19998;-82
2022/03/04 07:00:53;;;;;;;;;;;-0.80;99.90;;;;;;5078136;28;20432;-83
2022/03/04 07:03:19;;;;;;;;;;;-0.70;99.90;;;;;;5078256;28;19930;-83
2022/03/04 07:05:46;;;;;;;;;;;-0.70;99.90;;;;;;5078662;28;20357;-83
2022/03/04 07:08:11;;;;;;;;;;;-0.60;99.90;;;;;;5087949;28;20365;-83
2022/03/04 07:10:37;;;;;;;;;;;-0.70;99.90;;;;;;5071798;28;19994;-82
2022/03/04 07:13:03;;;;;;;;;;;-0.70;99.90;;;;;;5075655;28;19955;-83
2022/03/04 07:15:28;;;;;;;;;;;-0.60;99.90;;;;;;5082030;28;19967;-82
2022/03/04 07:17:54;;;;;;;;;;;-0.70;99.90;;;;;;5077326;28;19973;-83
2022/03/04 07:20:19;;;;;;;;;;;-0.60;99.90;;;;;;5079773;28;19924;-83
2022/03/04 07:22:51;;;;;;;;;;;-0.60;99.90;;;;;;5095010;28;19920;-83
2022/03/04 07:25:16;;;;;;;;;;;-0.50;99.90;;;;;;5095470;28;19920;-82
2022/03/04 07:27:42;;;;;;;;;;;-0.50;99.90;;;;;;5075473;28;20304;-83
2022/03/04 07:30:09;;;;;;;;;;;-0.50;99.90;;;;;;5073986;28;20407;-83
2022/03/04 07:32:35;;;;;;;;;;;-0.50;99.90;;;;;;5077602;28;19919;-83
2022/03/04 07:35:00;;;;;;;;;;;-0.50;99.90;;;;;;5080761;28;20052;-83
2022/03/04 07:37:26;;;;;;;;;;;-0.50;99.90;;;;;;5095030;28;19942;-83
2022/03/04 07:39:51;;;;;;;;;;;-0.50;99.90;;;;;;5079295;28;20352;-83
2022/03/04 07:42:17;;;;;;;;;;;-0.50;99.90;;;;;;5081139;28;20006;-85
2022/03/04 07:44:42;;;;;;;;;;;-0.50;99.90;;;;;;5082554;28;19926;-83
2022/03/04 07:47:08;;;;;;;;;;;-0.40;99.90;;;;;;5092407;28;19976;-84
2022/03/04 07:49:33;;;;;;;;;;;-0.40;99.90;;;;;;5071007;28;19939;-83
2022/03/04 07:51:59;;;;;;;;;;;-0.40;99.90;;;;;;5095697;28;19973;-83
2022/03/04 07:54:25;;;;;;;;;;;-0.40;99.90;;;;;;5084098;28;19919;-83
2022/03/04 07:56:52;;;;;;;;;;;-0.40;99.90;;;;;;5072460;28;19920;-83
2022/03/04 07:59:18;;;;;;;;;;;-0.20;99.90;;;;;;5081686;28;19927;-84
2022/03/04 08:01:43;;;;;;;;;;;0.70;99.90;;;;;;5080335;28;20056;-83
2022/03/04 08:04:11;;;;;;;;;;;-0.30;99.90;;;;;;5078084;28;19992;-83
2022/03/04 08:06:40;;;;;;;;;;;-0.10;99.90;;;;;;5077578;28;20385;-83
2022/03/04 08:09:05;;;;;;;;;;;-0.30;99.90;;;;;;5077143;28;20380;-83
2022/03/04 08:11:31;;;;;;;;;;;-0.40;99.90;;;;;;5094066;28;19920;-84
2022/03/04 08:13:56;;;;;;;;;;;-0.20;99.90;;;;;;5077686;28;19923;-85
2022/03/04 08:16:24;;;;;;;;;;;-0.40;99.90;;;;;;5092827;28;19924;-84
2022/03/04 08:18:49;;;;;;;;;;;-0.30;99.90;;;;;;5075967;28;19923;-84
2022/03/04 08:21:25;;;;;;;;;;;-0.30;99.90;;;;;;5078565;28;20010;-86
2022/03/04 08:23:51;;;;;;;;;;;-0.30;99.90;;;;;;5085228;28;19920;-83
2022/03/04 08:26:16;;;;;;;;;;;-0.30;99.90;;;;;;5076921;28;19919;-84
2022/03/04 08:28:47;;;;;;;;;;;-0.20;99.90;;;;;;5073928;28;19924;-83
2022/03/04 08:31:15;;;;;;;;;;;-0.20;99.90;;;;;;5060002;28;20003;-84
2022/03/04 08:33:43;;;;;;;;;;;-0.10;99.90;;;;;;5080261;28;19959;-84
2022/03/04 08:36:09;;;;;;;;;;;0.10;99.90;;;;;;5078954;28;19919;-84
2022/03/04 08:38:35;;;;;;;;;;;0.00;99.90;;;;;;5074577;28;19969;-84
2022/03/04 08:41:00;;;;;;;;;;;0.10;99.90;;;;;;5074568;28;20380;-83
2022/03/04 08:43:26;;;;;;;;;;;0.10;99.90;;;;;;5081230;28;19919;-83
2022/03/04 08:45:51;;;;;;;;;;;0.20;99.90;;;;;;5090017;28;19919;-84
2022/03/04 08:48:17;;;;;;;;;;;0.20;99.90;;;;;;5090286;28;19924;-83
2022/03/04 08:50:43;;;;;;;;;;;0.20;99.90;;;;;;5080718;28;20396;-83
2022/03/04 08:53:08;;;;;;;;;;;0.10;99.90;;;;;;5097870;28;19923;-83
2022/03/04 08:55:34;;;;;;;;;;;0.10;99.90;;;;;;5080236;28;20410;-84
2022/03/04 08:58:00;;;;;;;;;;;0.30;99.90;;;;;;5079790;28;19919;-83
2022/03/04 09:00:28;;;;;;;;;;;0.50;99.90;;;;;;5080582;28;19927;-83
2022/03/04 09:02:54;;;;;;;;;;;0.60;99.90;;;;;;5080769;28;20393;-83
2022/03/04 09:05:19;;;;;;;;;;;0.70;99.90;;;;;;5097162;28;19931;-83
2022/03/04 09:07:45;;;;;;;;;;;0.90;99.90;;;;;;5096651;28;19930;-83
2022/03/04 09:10:11;;;;;;;;;;;1.10;99.90;;;;;;5080147;28;19927;-84
2022/03/04 09:12:37;;;;;;;;;;;1.20;99.90;;;;;;5080851;28;19971;-83
2022/03/04 09:15:07;;;;;;;;;;;1.30;99.90;;;;;;5097476;28;19966;-83
2022/03/04 09:17:32;;;;;;;;;;;1.50;99.90;;;;;;5074630;28;20615;-83
2022/03/04 09:19:58;;;;;;;;;;;1.80;99.90;;;;;;5079966;28;20018;-83
2022/03/04 09:22:24;;;;;;;;;;;1.70;99.90;;;;;;5096898;28;19920;-83
2022/03/04 09:24:50;;;;;;;;;;;1.70;99.90;;;;;;5079566;28;20006;-83
2022/03/04 09:27:23;;;;;;;;;;;1.70;99.90;;;;;;5079564;28;19920;-84
2022/03/04 09:29:49;;;;;;;;;;;1.60;99.90;;;;;;5093481;28;19924;-83
2022/03/04 09:32:14;;;;;;;;;;;1.60;99.90;;;;;;5079443;28;20265;-84
2022/03/04 09:34:40;;;;;;;;;;;1.50;99.90;;;;;;5097694;28;20015;-83
2022/03/04 09:37:06;;;;;;;;;;;1.50;99.90;;;;;;5079923;28;19920;-83
2022/03/04 09:39:31;;;;;;;;;;;1.40;99.90;;;;;;5079322;28;19919;-84
2022/03/04 09:41:57;;;;;;;;;;;1.50;99.90;;;;;;5079216;28;19927;-83
2022/03/04 09:44:23;;;;;;;;;;;1.60;99.90;;;;;;5084111;27;19923;-84
2022/03/04 09:46:49;;;;;;;;;;;1.80;99.90;;;;;;5077158;28;20372;-82
2022/03/04 09:52:20;;;;;;;;;;;1.90;99.90;;;;;;5131667;27;20296;-83
2022/03/04 09:54:50;;;;;;;;;;;2.10;99.90;;;;;;5093377;28;19920;-84
2022/03/04 09:57:16;;;;;;;;;;;2.20;99.90;;;;;;5078862;27;19925;-84
2022/03/04 09:59:43;;;;;;;;;;;2.30;99.90;;;;;;5080751;28;20373;-84
2022/03/04 10:02:10;;;;;;;;;;;2.20;99.90;;;;;;5078777;28;19930;-84
2022/03/04 10:05:10;;;;;;;;;;;2.20;99.90;;;;;;5078776;28;19927;-84
2022/03/04 10:07:40;;;;;;;;;;;2.20;99.90;;;;;;5059536;28;20348;-83
2022/03/04 10:10:09;;;;;;;;;;;2.30;99.90;;;;;;5075798;28;19923;-84
2022/03/04 10:12:44;;;;;;;;;;;2.20;99.90;;;;;;5128204;27;19923;-84
2022/03/04 10:15:09;;;;;;;;;;;2.40;99.90;;;;;;5078116;28;19919;-84
2022/03/04 10:17:36;;;;;;;;;;;2.40;99.90;;;;;;5072542;28;19932;-84
2022/03/04 10:20:03;;;;;;;;;;;2.40;99.90;;;;;;5077630;28;19969;-83
2022/03/04 10:22:37;;;;;;;;;;;2.40;99.90;;;;;;5073461;28;19924;-84
2022/03/04 10:25:26;;;;;;;;;;;2.40;99.90;;;;;;5072862;28;19927;-84
2022/03/04 10:27:52;;;;;;;;;;;2.50;99.90;;;;;;5077714;28;19931;-83
2022/03/04 10:30:28;;;;;;;;;;;2.50;99.90;;;;;;5094781;28;20291;-84
2022/03/04 10:33:04;;;;;;;;;;;2.60;99.90;;;;;;5091118;28;19920;-84
2022/03/04 10:35:29;;;;;;;;;;;2.50;99.90;;;;;;5078078;28;19931;-84
2022/03/04 10:37:55;;;;;;;;;;;2.50;99.90;;;;;;5078136;28;19990;-84
2022/03/04 10:40:21;;;;;;;;;;;2.60;99.90;;;;;;5094621;28;20288;-84
2022/03/04 10:42:53;;;;;;;;;;;2.80;99.90;;;;;;5074297;28;19924;-85
2022/03/04 10:45:25;;;;;;;;;;;2.70;99.90;;;;;;5070504;28;19920;-84
2022/03/04 10:47:57;;;;;;;;;;;2.70;99.90;;;;;;5094327;28;19935;-84
2022/03/04 10:50:34;;;;;;;;;;;2.90;99.90;;;;;;5077464;28;19923;-84
2022/03/04 10:53:03;;;;;;;;;;;2.60;99.90;;;;;;5075616;28;19923;-84
2022/03/04 10:55:34;;;;;;;;;;;3.00;99.90;;;;;;5092941;28;19927;-84
2022/03/04 10:58:00;;;;;;;;;;;3.10;99.90;;;;;;5096823;27;20018;-84
2022/03/04 11:00:38;;;;;;;;;;;3.10;99.90;;;;;;5106908;27;19922;-84
2022/03/04 11:03:05;;;;;;;;;;;3.10;99.90;;;;;;5091657;28;19924;-84
2022/03/04 11:05:30;;;;;;;;;;;3.10;99.90;;;;;;5075469;28;19927;-84
2022/03/04 11:07:56;;;;;;;;;;;3.20;99.90;;;;;;5086940;28;19924;-84
2022/03/04 11:10:22;;;;;;;;;;;3.30;99.90;;;;;;5093911;28;19920;-85
2022/03/04 11:12:50;;;;;;;;;;;3.30;99.90;;;;;;5072798;28;19920;-84
2022/03/04 11:15:17;;;;;;;;;;;3.50;99.90;;;;;;5096805;28;19928;-83
2022/03/04 11:17:44;;;;;;;;;;;3.40;99.90;;;;;;5106179;27;19970;-84
2022/03/04 11:20:10;;;;;;;;;;;3.40;99.90;;;;;;5093751;28;20321;-84
2022/03/04 11:22:38;;;;;;;;;;;3.50;99.90;;;;;;5071504;28;19920;-84
2022/03/04 11:25:05;;;;;;;;;;;3.40;99.90;;;;;;5077640;28;19919;-84
2022/03/04 11:27:32;;;;;;;;;;;3.50;99.90;;;;;;5077202;28;19920;-83
2022/03/04 11:29:58;;;;;;;;;;;3.50;99.90;;;;;;5075624;28;20018;-84
2022/03/04 11:32:30;;;;;;;;;;;3.50;99.90;;;;;;5077386;28;19927;-83
2022/03/04 11:34:56;;;;;;;;;;;3.70;99.90;;;;;;5077557;28;20022;-83
2022/03/04 11:37:22;;;;;;;;;;;3.70;99.90;;;;;;5077098;28;19969;-84
2022/03/04 11:40:03;;;;;;;;;;;3.80;99.90;;;;;;5094567;28;19920;-84
2022/03/04 11:42:49;;;;;;;;;;;3.80;99.90;;;;;;5067891;28;19919;-83
2022/03/04 11:45:27;;;;;;;;;;;3.80;99.90;;;;;;5073312;28;19919;-84
2022/03/04 11:48:00;;;;;;;;;;;3.80;99.90;;;;;;5071063;28;19924;-84
2022/03/04 11:50:33;;;;;;;;;;;3.90;99.90;;;;;;5100591;28;19919;-84
2022/03/04 11:53:17;;;;;;;;;;;3.90;99.90;;;;;;5082706;28;20096;-84
2022/03/04 11:56:02;;;;;;;;;;;4.00;99.90;;;;;;5077630;28;19928;-84
2022/03/04 11:58:50;;;;;;;;;;;4.10;99.90;;;;;;5100725;28;19924;-84
2022/03/04 12:01:16;;;;;;;;;;;4.20;99.90;;;;;;5102623;28;19926;-83
2022/03/04 12:04:01;;;;;;;;;;;4.20;99.90;;;;;;5098785;28;19924;-84
2022/03/04 12:06:26;;;;;;;;;;;4.30;99.90;;;;;;5092595;27;19923;-84
2022/03/04 12:08:52;;;;;;;;;;;4.30;99.90;;;;;;5081200;28;19988;-84
2022/03/04 12:11:24;;;;;;;;;;;4.40;99.90;;;;;;5081436;28;19965;-84
2022/03/04 12:14:05;;;;;;;;;;;4.40;99.90;;;;;;5076164;28;19919;-84
2022/03/04 12:16:48;;;;;;;;;;;4.50;99.90;;;;;;5097848;28;20394;-84
2022/03/04 12:19:30;;;;;;;;;;;4.50;99.90;;;;;;5081241;28;19923;-83
2022/03/04 12:21:59;;;;;;;;;;;4.60;99.90;;;;;;5082965;27;20364;-84
2022/03/04 12:24:32;;;;;;;;;;;4.60;99.90;;;;;;5108733;27;19920;-85
2022/03/04 12:26:57;;;;;;;;;;;4.60;99.90;;;;;;5080481;27;19986;-83
2022/03/04 12:29:40;;;;;;;;;;;4.70;99.90;;;;;;5102853;27;19923;-84
2022/03/04 12:32:06;;;;;;;;;;;4.70;99.90;;;;;;5081565;28;20365;-84
2022/03/04 12:34:32;;;;;;;;;;;4.80;99.90;;;;;;5081211;28;20002;-84
2022/03/04 12:36:58;;;;;;;;;;;4.80;99.90;;;;;;5080581;28;19927;-83
2022/03/04 12:39:24;;;;;;;;;;;5.00;99.90;;;;;;5080785;28;19926;-84
2022/03/04 12:41:56;;;;;;;;;;;4.80;99.90;;;;;;5080422;28;19919;-84
2022/03/04 12:44:21;;;;;;;;;;;4.90;99.90;;;;;;5085024;28;19919;-84
2022/03/04 12:47:12;;;;;;;;;;;4.90;99.90;;;;;;5077054;28;20296;-84
2022/03/04 12:49:39;;;;;;;;;;;4.90;99.90;;;;;;5080019;28;19923;-84
2022/03/04 12:52:04;;;;;;;;;;;5.00;99.90;;;;;;5080332;28;19963;-84
2022/03/04 12:54:33;;;;;;;;;;;5.00;99.90;;;;;;5110784;27;19927;-84
2022/03/04 12:57:00;;;;;;;;;;;5.10;99.90;;;;;;5078395;28;19924;-84
2022/03/04 12:59:30;;;;;;;;;;;5.10;99.90;;;;;;5074008;28;20394;-84
2022/03/04 13:01:57;;;;;;;;;;;5.30;99.90;;;;;;5098978;27;19927;-84
2022/03/04 13:04:22;;;;;;;;;;;5.30;99.90;;;;;;5084319;28;20341;-84
2022/03/04 13:06:58;;;;;;;;;;;5.30;99.90;;;;;;5103092;28;20044;-84
2022/03/04 13:09:24;;;;;;;;;;;5.30;99.90;;;;;;5080374;28;19980;-83
2022/03/04 13:11:50;;;;;;;;;;;5.40;99.90;;;;;;5097629;28;20396;-84
2022/03/04 13:14:17;;;;;;;;;;;5.40;99.90;;;;;;5096837;28;20761;-84
2022/03/04 13:16:43;;;;;;;;;;;5.40;99.90;;;;;;5079084;28;19919;-84
2022/03/04 13:19:10;;;;;;;;;;;5.50;99.90;;;;;;5097057;28;19924;-84
2022/03/04 13:21:37;;;;;;;;;;;5.70;99.90;;;;;;5129434;27;19973;-84
2022/03/04 13:24:10;;;;;;;;;;;5.80;99.90;;;;;;5095117;28;19996;-84
2022/03/04 13:26:36;;;;;;;;;;;5.80;99.90;;;;;;5079288;28;19950;-84
2022/03/04 13:29:03;;;;;;;;;;;5.90;99.90;;;;;;5079834;28;21499;-84
2022/03/04 13:31:30;;;;;;;;;;;5.90;99.90;;;;;;5075236;28;19922;-84
2022/03/04 13:34:06;;;;;;;;;;;5.90;99.90;;;;;;5077901;28;20181;-85
2022/03/04 13:36:47;;;;;;;;;;;5.90;99.90;;;;;;5079600;28;20444;-84
2022/03/04 13:39:26;;;;;;;;;;;6.00;99.90;;;;;;5079543;28;19927;-84
2022/03/04 13:42:08;;;;;;;;;;;6.00;99.90;;;;;;5077367;28;20002;-84
2022/03/04 13:44:34;;;;;;;;;;;6.10;99.90;;;;;;5070916;28;19974;-84
2022/03/04 13:47:00;;;;;;;;;;;6.10;99.90;;;;;;5095807;28;19994;-84
2022/03/04 13:49:41;;;;;;;;;;;6.10;99.90;;;;;;5096147;28;20040;-83
2022/03/04 13:52:06;;;;;;;;;;;6.10;99.90;;;;;;5079569;28;19951;-83
2022/03/04 13:54:45;;;;;;;;;;;6.20;99.90;;;;;;5096292;28;20407;-83
2022/03/04 13:57:27;;;;;;;;;;;6.20;99.90;;;;;;5072605;28;19919;-84
2022/03/04 13:59:53;;;;;;;;;;;6.20;99.90;;;;;;5078963;28;19919;-84
2022/03/04 14:02:19;;;;;;;;;;;6.30;99.90;;;;;;5079170;28;19920;-83
2022/03/04 14:04:52;;;;;;;;;;;6.40;99.90;;;;;;5079246;28;19920;-83
2022/03/04 14:07:18;;;;;;;;;;;6.40;99.90;;;;;;5095522;28;19920;-84
2022/03/04 14:09:44;;;;;;;;;;;6.40;99.90;;;;;;5078884;28;19931;-83
2022/03/04 14:12:10;;;;;;;;;;;6.50;99.90;;;;;;5078975;28;19920;-84
2022/03/04 14:14:35;;;;;;;;;;;6.40;99.90;;;;;;5078923;28;19923;-86
2022/03/04 14:17:01;;;;;;;;;;;6.50;99.90;;;;;;5078430;28;19920;-86
2022/03/04 14:19:27;;;;;;;;;;;6.50;99.90;;;;;;5079029;28;20342;-86
2022/03/04 14:21:52;;;;;;;;;;;6.60;99.90;;;;;;5078952;28;19969;-87
2022/03/04 14:24:18;;;;;;;;;;;6.70;99.90;;;;;;5078880;28;19926;-86
2022/03/04 14:26:43;;;;;;;;;;;6.80;99.90;;;;;;5078079;28;19924;-86
2022/03/04 14:29:13;;;;;;;;;;;6.80;99.90;;;;;;5094997;28;20388;-86
2022/03/04 14:31:39;;;;;;;;;;;6.90;99.90;;;;;;5072055;28;19920;-86